KSUU/SUU METAR and TAF weather

Enter ICAO airport designator
Station Type Date Time Source
KSUU METAR 2022/06/25 21:58 UTC NOAA

KSUU 252158Z AUTO 23015KT 10SM CLR 36/03 A2984 RMK AO2 SLP111 T03560029 $


Station Type Date Time Source
KSUU Decoded METAR 2022/06/25 21:58 UTC NOAA

Fairfield / Travis Air Force Base, CA, United States (KSUU) 38-16N 121-57W 22M
Jun 25, 2022 - 05:58 PM EDT / 2022.06.25 2158 UTC
Wind: from the SW (230 degrees) at 17 MPH (15 KT):0
Visibility: 10 mile(s):0
Sky conditions: clear
Temperature: 96.1 F (35.6 C)
Dew Point: 37.2 F (2.9 C)
Relative Humidity: 12%
Pressure (altimeter): 29.84 in. Hg (1010 hPa)
ob: KSUU 252158Z AUTO 23015KT 10SM CLR 36/03 A2984 RMK AO2 SLP111 T03560029
cycle: 22

Station Type Date Time Source
KSUU TAF 2022/06/25 19:58 UTC NOAA

TAF KSUU 251900Z 2519/2701 23010G15KT 9999 SKC QNH2982INS
BECMG 2522/2523 23015G25KT 9999 SKC QNH2981INS
BECMG 2610/2611 23010G15KT 9999 SKC QNH2987INS TX37/2523Z TN14/2612Z

Example: see airport list